sensor_id;sensor_type;location;lat;lon;timestamp;P1;durP1;ratioP1;P2;durP2;ratioP2
16308;SDS011;8263;48.880;9.276;2023-05-07T00:01:12;113.18;;;105.68;;
16308;SDS011;8263;48.880;9.276;2023-05-07T00:03:38;117.00;;;109.10;;
16308;SDS011;8263;48.880;9.276;2023-05-07T00:06:05;113.90;;;106.35;;
16308;SDS011;8263;48.880;9.276;2023-05-07T00:08:31;116.25;;;108.35;;
16308;SDS011;8263;48.880;9.276;2023-05-07T00:10:58;117.32;;;109.30;;
16308;SDS011;8263;48.880;9.276;2023-05-07T00:13:26;115.55;;;107.90;;
16308;SDS011;8263;48.880;9.276;2023-05-07T00:15:55;117.00;;;109.18;;
16308;SDS011;8263;48.880;9.276;2023-05-07T00:18:21;116.22;;;108.43;;
16308;SDS011;8263;48.880;9.276;2023-05-07T00:20:48;114.47;;;106.90;;
16308;SDS011;8263;48.880;9.276;2023-05-07T00:23:15;114.53;;;106.88;;
16308;SDS011;8263;48.880;9.276;2023-05-07T00:25:41;116.15;;;108.40;;
16308;SDS011;8263;48.880;9.276;2023-05-07T00:28:08;114.95;;;107.25;;
16308;SDS011;8263;48.880;9.276;2023-05-07T00:30:36;117.07;;;109.28;;
16308;SDS011;8263;48.880;9.276;2023-05-07T00:33:02;117.93;;;110.10;;
16308;SDS011;8263;48.880;9.276;2023-05-07T00:35:29;118.07;;;110.18;;
16308;SDS011;8263;48.880;9.276;2023-05-07T00:37:55;116.88;;;109.10;;
16308;SDS011;8263;48.880;9.276;2023-05-07T00:40:22;116.93;;;109.15;;
16308;SDS011;8263;48.880;9.276;2023-05-07T00:42:48;118.80;;;110.85;;
16308;SDS011;8263;48.880;9.276;2023-05-07T00:45:15;117.00;;;109.20;;
16308;SDS011;8263;48.880;9.276;2023-05-07T00:47:43;118.32;;;110.43;;
16308;SDS011;8263;48.880;9.276;2023-05-07T00:50:10;119.22;;;111.25;;
16308;SDS011;8263;48.880;9.276;2023-05-07T00:52:37;117.40;;;109.57;;
16308;SDS011;8263;48.880;9.276;2023-05-07T00:55:05;119.90;;;111.60;;
16308;SDS011;8263;48.880;9.276;2023-05-07T00:57:32;118.00;;;109.90;;
16308;SDS011;8263;48.880;9.276;2023-05-07T00:59:59;114.75;;;107.13;;
16308;SDS011;8263;48.880;9.276;2023-05-07T01:02:26;119.03;;;110.93;;
16308;SDS011;8263;48.880;9.276;2023-05-07T01:04:54;118.85;;;110.82;;
16308;SDS011;8263;48.880;9.276;2023-05-07T01:07:21;118.88;;;110.88;;
16308;SDS011;8263;48.880;9.276;2023-05-07T01:09:48;117.75;;;109.85;;
16308;SDS011;8263;48.880;9.276;2023-05-07T01:12:14;119.82;;;111.82;;
16308;SDS011;8263;48.880;9.276;2023-05-07T01:14:41;119.55;;;111.35;;
16308;SDS011;8263;48.880;9.276;2023-05-07T01:17:08;119.22;;;111.28;;
16308;SDS011;8263;48.880;9.276;2023-05-07T01:19:34;119.00;;;111.07;;
16308;SDS011;8263;48.880;9.276;2023-05-07T01:22:04;118.57;;;110.68;;
16308;SDS011;8263;48.880;9.276;2023-05-07T01:24:35;118.35;;;110.45;;
16308;SDS011;8263;48.880;9.276;2023-05-07T01:27:02;119.57;;;111.57;;
16308;SDS011;8263;48.880;9.276;2023-05-07T01:29:29;119.63;;;111.63;;
16308;SDS011;8263;48.880;9.276;2023-05-07T01:31:57;119.80;;;111.70;;
16308;SDS011;8263;48.880;9.276;2023-05-07T01:34:25;116.90;;;109.10;;
16308;SDS011;8263;48.880;9.276;2023-05-07T01:36:52;118.38;;;110.47;;
16308;SDS011;8263;48.880;9.276;2023-05-07T01:39:20;119.88;;;111.88;;
16308;SDS011;8263;48.880;9.276;2023-05-07T01:41:49;119.00;;;110.85;;
16308;SDS011;8263;48.880;9.276;2023-05-07T01:44:16;119.10;;;111.10;;
16308;SDS011;8263;48.880;9.276;2023-05-07T01:46:43;119.28;;;111.28;;
16308;SDS011;8263;48.880;9.276;2023-05-07T01:49:09;120.22;;;112.18;;
16308;SDS011;8263;48.880;9.276;2023-05-07T01:51:36;118.78;;;110.78;;
16308;SDS011;8263;48.880;9.276;2023-05-07T01:54:03;120.55;;;112.45;;
16308;SDS011;8263;48.880;9.276;2023-05-07T01:56:30;120.50;;;112.40;;
16308;SDS011;8263;48.880;9.276;2023-05-07T01:58:58;121.68;;;113.40;;
16308;SDS011;8263;48.880;9.276;2023-05-07T02:01:25;118.75;;;110.75;;
16308;SDS011;8263;48.880;9.276;2023-05-07T02:03:52;118.15;;;110.00;;
16308;SDS011;8263;48.880;9.276;2023-05-07T02:06:18;119.85;;;111.70;;
16308;SDS011;8263;48.880;9.276;2023-05-07T02:08:46;119.57;;;111.47;;
16308;SDS011;8263;48.880;9.276;2023-05-07T02:11:13;119.88;;;111.82;;
16308;SDS011;8263;48.880;9.276;2023-05-07T02:13:39;118.85;;;110.85;;
16308;SDS011;8263;48.880;9.276;2023-05-07T02:16:09;119.85;;;111.72;;
16308;SDS011;8263;48.880;9.276;2023-05-07T02:18:36;120.97;;;112.80;;
16308;SDS011;8263;48.880;9.276;2023-05-07T02:21:03;121.32;;;113.13;;
16308;SDS011;8263;48.880;9.276;2023-05-07T02:23:30;120.13;;;111.97;;
16308;SDS011;8263;48.880;9.276;2023-05-07T02:25:56;122.00;;;113.80;;
16308;SDS011;8263;48.880;9.276;2023-05-07T02:28:23;119.70;;;111.60;;
16308;SDS011;8263;48.880;9.276;2023-05-07T02:30:51;122.32;;;114.03;;
16308;SDS011;8263;48.880;9.276;2023-05-07T02:33:19;120.82;;;112.63;;
16308;SDS011;8263;48.880;9.276;2023-05-07T02:35:45;122.47;;;114.15;;
16308;SDS011;8263;48.880;9.276;2023-05-07T02:38:12;123.85;;;115.00;;
16308;SDS011;8263;48.880;9.276;2023-05-07T02:40:38;121.45;;;113.25;;
16308;SDS011;8263;48.880;9.276;2023-05-07T02:43:05;122.63;;;114.25;;
16308;SDS011;8263;48.880;9.276;2023-05-07T02:45:31;122.10;;;113.88;;
16308;SDS011;8263;48.880;9.276;2023-05-07T02:47:58;122.93;;;114.60;;
16308;SDS011;8263;48.880;9.276;2023-05-07T02:50:27;121.78;;;113.57;;
16308;SDS011;8263;48.880;9.276;2023-05-07T02:52:55;120.82;;;112.70;;
16308;SDS011;8263;48.880;9.276;2023-05-07T02:55:21;121.10;;;112.93;;
16308;SDS011;8263;48.880;9.276;2023-05-07T02:57:48;120.35;;;112.22;;
16308;SDS011;8263;48.880;9.276;2023-05-07T03:00:16;122.88;;;114.57;;
16308;SDS011;8263;48.880;9.276;2023-05-07T03:02:43;121.47;;;113.28;;
16308;SDS011;8263;48.880;9.276;2023-05-07T03:05:09;120.60;;;112.50;;
16308;SDS011;8263;48.880;9.276;2023-05-07T03:07:38;121.72;;;113.47;;
16308;SDS011;8263;48.880;9.276;2023-05-07T03:10:04;120.60;;;112.45;;
16308;SDS011;8263;48.880;9.276;2023-05-07T03:12:31;124.03;;;115.63;;
16308;SDS011;8263;48.880;9.276;2023-05-07T03:14:58;122.47;;;114.20;;
16308;SDS011;8263;48.880;9.276;2023-05-07T03:17:24;124.00;;;115.60;;
16308;SDS011;8263;48.880;9.276;2023-05-07T03:19:51;124.32;;;115.93;;
16308;SDS011;8263;48.880;9.276;2023-05-07T03:22:18;121.82;;;113.53;;
16308;SDS011;8263;48.880;9.276;2023-05-07T03:24:46;123.70;;;115.32;;
16308;SDS011;8263;48.880;9.276;2023-05-07T03:27:12;122.30;;;114.00;;
16308;SDS011;8263;48.880;9.276;2023-05-07T03:29:39;120.75;;;112.63;;
16308;SDS011;8263;48.880;9.276;2023-05-07T03:32:05;121.35;;;113.18;;
16308;SDS011;8263;48.880;9.276;2023-05-07T03:34:32;124.13;;;115.63;;
16308;SDS011;8263;48.880;9.276;2023-05-07T03:36:59;124.65;;;116.15;;
16308;SDS011;8263;48.880;9.276;2023-05-07T03:39:25;122.57;;;114.28;;
16308;SDS011;8263;48.880;9.276;2023-05-07T03:41:53;123.18;;;114.75;;
16308;SDS011;8263;48.880;9.276;2023-05-07T03:44:20;122.95;;;114.65;;
16308;SDS011;8263;48.880;9.276;2023-05-07T03:46:47;123.32;;;114.93;;
16308;SDS011;8263;48.880;9.276;2023-05-07T03:49:13;122.90;;;114.60;;
16308;SDS011;8263;48.880;9.276;2023-05-07T03:51:40;125.22;;;116.72;;
16308;SDS011;8263;48.880;9.276;2023-05-07T03:54:06;122.40;;;114.10;;
16308;SDS011;8263;48.880;9.276;2023-05-07T03:56:33;125.45;;;116.95;;
16308;SDS011;8263;48.880;9.276;2023-05-07T03:59:01;125.32;;;116.82;;
16308;SDS011;8263;48.880;9.276;2023-05-07T04:01:28;126.88;;;118.22;;
16308;SDS011;8263;48.880;9.276;2023-05-07T04:03:55;124.22;;;115.78;;
16308;SDS011;8263;48.880;9.276;2023-05-07T04:06:22;121.82;;;113.63;;
16308;SDS011;8263;48.880;9.276;2023-05-07T04:08:49;124.38;;;115.90;;
16308;SDS011;8263;48.880;9.276;2023-05-07T04:11:16;124.53;;;116.03;;
16308;SDS011;8263;48.880;9.276;2023-05-07T04:13:43;124.95;;;116.45;;
16308;SDS011;8263;48.880;9.276;2023-05-07T04:16:11;124.13;;;115.72;;
16308;SDS011;8263;48.880;9.276;2023-05-07T04:18:37;122.95;;;114.63;;
16308;SDS011;8263;48.880;9.276;2023-05-07T04:21:04;125.55;;;117.05;;
16308;SDS011;8263;48.880;9.276;2023-05-07T04:23:31;124.60;;;116.10;;
16308;SDS011;8263;48.880;9.276;2023-05-07T04:25:57;125.30;;;116.80;;
16308;SDS011;8263;48.880;9.276;2023-05-07T04:28:25;125.25;;;116.75;;
16308;SDS011;8263;48.880;9.276;2023-05-07T04:30:52;125.50;;;116.90;;
16308;SDS011;8263;48.880;9.276;2023-05-07T04:33:21;124.25;;;115.80;;
16308;SDS011;8263;48.880;9.276;2023-05-07T04:35:47;122.70;;;114.40;;
16308;SDS011;8263;48.880;9.276;2023-05-07T04:38:14;124.45;;;116.03;;
16308;SDS011;8263;48.880;9.276;2023-05-07T04:40:41;124.50;;;116.00;;
16308;SDS011;8263;48.880;9.276;2023-05-07T04:43:07;126.10;;;117.47;;
16308;SDS011;8263;48.880;9.276;2023-05-07T04:45:34;126.47;;;117.68;;
16308;SDS011;8263;48.880;9.276;2023-05-07T04:48:01;126.22;;;117.55;;
16308;SDS011;8263;48.880;9.276;2023-05-07T04:50:29;125.82;;;117.22;;
16308;SDS011;8263;48.880;9.276;2023-05-07T04:52:56;125.55;;;117.03;;
16308;SDS011;8263;48.880;9.276;2023-05-07T04:55:22;125.80;;;117.22;;
16308;SDS011;8263;48.880;9.276;2023-05-07T04:57:49;125.40;;;116.78;;
16308;SDS011;8263;48.880;9.276;2023-05-07T05:00:16;124.07;;;115.68;;
16308;SDS011;8263;48.880;9.276;2023-05-07T05:02:44;123.72;;;115.32;;
16308;SDS011;8263;48.880;9.276;2023-05-07T05:05:11;126.35;;;117.72;;
16308;SDS011;8263;48.880;9.276;2023-05-07T05:07:39;126.68;;;117.97;;
16308;SDS011;8263;48.880;9.276;2023-05-07T05:10:06;123.95;;;115.53;;
16308;SDS011;8263;48.880;9.276;2023-05-07T05:12:33;127.88;;;119.07;;
16308;SDS011;8263;48.880;9.276;2023-05-07T05:15:00;126.00;;;117.38;;
16308;SDS011;8263;48.880;9.276;2023-05-07T05:17:26;124.78;;;116.28;;
16308;SDS011;8263;48.880;9.276;2023-05-07T05:19:53;124.72;;;116.22;;
16308;SDS011;8263;48.880;9.276;2023-05-07T05:22:20;124.63;;;116.13;;
16308;SDS011;8263;48.880;9.276;2023-05-07T05:24:48;126.47;;;117.80;;
16308;SDS011;8263;48.880;9.276;2023-05-07T05:27:15;126.78;;;118.03;;
16308;SDS011;8263;48.880;9.276;2023-05-07T05:29:45;126.75;;;118.05;;
16308;SDS011;8263;48.880;9.276;2023-05-07T05:32:11;125.68;;;117.07;;
16308;SDS011;8263;48.880;9.276;2023-05-07T05:34:38;126.07;;;117.47;;
16308;SDS011;8263;48.880;9.276;2023-05-07T05:37:05;126.45;;;117.75;;
16308;SDS011;8263;48.880;9.276;2023-05-07T05:39:31;125.20;;;116.65;;
16308;SDS011;8263;48.880;9.276;2023-05-07T05:41:59;123.38;;;114.97;;
16308;SDS011;8263;48.880;9.276;2023-05-07T05:44:26;123.28;;;114.88;;
16308;SDS011;8263;48.880;9.276;2023-05-07T05:46:52;126.07;;;117.38;;
16308;SDS011;8263;48.880;9.276;2023-05-07T05:49:20;123.65;;;115.22;;
16308;SDS011;8263;48.880;9.276;2023-05-07T05:51:46;126.85;;;118.05;;
16308;SDS011;8263;48.880;9.276;2023-05-07T05:54:13;123.30;;;114.90;;
16308;SDS011;8263;48.880;9.276;2023-05-07T05:56:40;123.47;;;114.88;;
16308;SDS011;8263;48.880;9.276;2023-05-07T05:59:08;124.43;;;115.82;;
16308;SDS011;8263;48.880;9.276;2023-05-07T06:01:34;125.28;;;116.68;;
16308;SDS011;8263;48.880;9.276;2023-05-07T06:04:01;123.00;;;114.50;;
16308;SDS011;8263;48.880;9.276;2023-05-07T06:06:27;126.68;;;117.97;;
16308;SDS011;8263;48.880;9.276;2023-05-07T06:08:54;125.03;;;116.43;;
16308;SDS011;8263;48.880;9.276;2023-05-07T06:11:21;123.35;;;114.95;;
16308;SDS011;8263;48.880;9.276;2023-05-07T06:13:47;124.35;;;115.93;;
16308;SDS011;8263;48.880;9.276;2023-05-07T06:16:16;124.30;;;115.80;;
16308;SDS011;8263;48.880;9.276;2023-05-07T06:18:42;125.43;;;116.85;;
16308;SDS011;8263;48.880;9.276;2023-05-07T06:21:10;123.45;;;115.05;;
16308;SDS011;8263;48.880;9.276;2023-05-07T06:23:36;124.30;;;115.80;;
16308;SDS011;8263;48.880;9.276;2023-05-07T06:26:03;124.57;;;116.10;;
16308;SDS011;8263;48.880;9.276;2023-05-07T06:28:30;124.78;;;116.30;;
16308;SDS011;8263;48.880;9.276;2023-05-07T06:31:10;124.20;;;115.55;;
16308;SDS011;8263;48.880;9.276;2023-05-07T06:33:38;123.47;;;114.90;;
16308;SDS011;8263;48.880;9.276;2023-05-07T06:36:05;125.45;;;116.88;;
16308;SDS011;8263;48.880;9.276;2023-05-07T06:38:32;122.97;;;114.68;;
16308;SDS011;8263;48.880;9.276;2023-05-07T06:40:58;123.18;;;114.78;;
16308;SDS011;8263;48.880;9.276;2023-05-07T06:43:25;123.13;;;114.80;;
16308;SDS011;8263;48.880;9.276;2023-05-07T06:45:51;122.10;;;113.82;;
16308;SDS011;8263;48.880;9.276;2023-05-07T06:48:18;124.07;;;115.68;;
16308;SDS011;8263;48.880;9.276;2023-05-07T06:50:47;124.05;;;115.60;;
16308;SDS011;8263;48.880;9.276;2023-05-07T06:53:13;121.63;;;113.40;;
16308;SDS011;8263;48.880;9.276;2023-05-07T06:55:40;124.10;;;115.60;;
16308;SDS011;8263;48.880;9.276;2023-05-07T06:58:06;123.30;;;114.57;;
16308;SDS011;8263;48.880;9.276;2023-05-07T07:00:34;122.78;;;114.47;;
16308;SDS011;8263;48.880;9.276;2023-05-07T07:03:01;122.63;;;114.32;;
16308;SDS011;8263;48.880;9.276;2023-05-07T07:05:27;122.20;;;113.90;;
16308;SDS011;8263;48.880;9.276;2023-05-07T07:07:55;122.50;;;114.20;;
16308;SDS011;8263;48.880;9.276;2023-05-07T07:10:22;121.47;;;113.28;;
16308;SDS011;8263;48.880;9.276;2023-05-07T07:12:49;121.43;;;113.25;;
16308;SDS011;8263;48.880;9.276;2023-05-07T07:15:15;119.68;;;111.47;;
16308;SDS011;8263;48.880;9.276;2023-05-07T07:17:42;122.03;;;113.80;;
16308;SDS011;8263;48.880;9.276;2023-05-07T07:20:09;119.80;;;111.70;;
16308;SDS011;8263;48.880;9.276;2023-05-07T07:22:36;118.22;;;110.30;;
16308;SDS011;8263;48.880;9.276;2023-05-07T07:25:04;119.40;;;111.40;;
16308;SDS011;8263;48.880;9.276;2023-05-07T07:27:30;120.97;;;112.80;;
16308;SDS011;8263;48.880;9.276;2023-05-07T07:29:57;118.82;;;110.82;;
16308;SDS011;8263;48.880;9.276;2023-05-07T07:32:25;120.07;;;112.03;;
16308;SDS011;8263;48.880;9.276;2023-05-07T07:34:51;118.38;;;110.47;;
16308;SDS011;8263;48.880;9.276;2023-05-07T07:37:18;118.45;;;110.55;;
16308;SDS011;8263;48.880;9.276;2023-05-07T07:39:45;116.80;;;109.00;;
16308;SDS011;8263;48.880;9.276;2023-05-07T07:42:13;117.50;;;109.60;;
16308;SDS011;8263;48.880;9.276;2023-05-07T07:44:39;116.57;;;108.78;;
16308;SDS011;8263;48.880;9.276;2023-05-07T07:47:06;118.20;;;110.30;;
16308;SDS011;8263;48.880;9.276;2023-05-07T07:49:32;117.75;;;109.95;;
16308;SDS011;8263;48.880;9.276;2023-05-07T07:51:59;117.72;;;109.93;;
16308;SDS011;8263;48.880;9.276;2023-05-07T07:54:25;116.60;;;108.90;;
16308;SDS011;8263;48.880;9.276;2023-05-07T07:56:52;115.78;;;108.10;;
16308;SDS011;8263;48.880;9.276;2023-05-07T07:59:20;114.75;;;107.15;;
16308;SDS011;8263;48.880;9.276;2023-05-07T08:01:46;112.82;;;105.40;;
16308;SDS011;8263;48.880;9.276;2023-05-07T08:04:15;113.88;;;106.38;;
16308;SDS011;8263;48.880;9.276;2023-05-07T08:06:41;114.63;;;107.03;;
16308;SDS011;8263;48.880;9.276;2023-05-07T08:09:08;114.90;;;107.30;;
16308;SDS011;8263;48.880;9.276;2023-05-07T08:11:34;115.13;;;107.53;;
16308;SDS011;8263;48.880;9.276;2023-05-07T08:14:01;113.20;;;105.72;;
16308;SDS011;8263;48.880;9.276;2023-05-07T08:16:30;114.63;;;107.05;;
16308;SDS011;8263;48.880;9.276;2023-05-07T08:18:56;110.22;;;102.95;;
16308;SDS011;8263;48.880;9.276;2023-05-07T08:21:23;111.72;;;104.32;;
16308;SDS011;8263;48.880;9.276;2023-05-07T08:23:49;112.90;;;105.47;;
16308;SDS011;8263;48.880;9.276;2023-05-07T08:26:16;113.20;;;105.72;;
16308;SDS011;8263;48.880;9.276;2023-05-07T08:28:42;112.75;;;105.30;;
16308;SDS011;8263;48.880;9.276;2023-05-07T08:31:09;113.45;;;105.85;;
16308;SDS011;8263;48.880;9.276;2023-05-07T08:33:37;110.32;;;102.60;;
16308;SDS011;8263;48.880;9.276;2023-05-07T08:36:04;110.68;;;103.38;;
16308;SDS011;8263;48.880;9.276;2023-05-07T08:38:31;110.15;;;102.95;;
16308;SDS011;8263;48.880;9.276;2023-05-07T08:40:58;111.35;;;103.35;;
16308;SDS011;8263;48.880;9.276;2023-05-07T08:43:25;111.85;;;104.47;;
16308;SDS011;8263;48.880;9.276;2023-05-07T08:45:53;111.97;;;104.63;;
16308;SDS011;8263;48.880;9.276;2023-05-07T08:48:20;103.90;;;97.10;;
16308;SDS011;8263;48.880;9.276;2023-05-07T08:50:49;110.75;;;103.45;;
16308;SDS011;8263;48.880;9.276;2023-05-07T08:53:16;110.05;;;102.75;;
16308;SDS011;8263;48.880;9.276;2023-05-07T08:55:43;107.63;;;100.60;;
16308;SDS011;8263;48.880;9.276;2023-05-07T08:58:09;110.18;;;102.88;;
16308;SDS011;8263;48.880;9.276;2023-05-07T09:00:36;108.28;;;101.18;;
16308;SDS011;8263;48.880;9.276;2023-05-07T09:03:03;107.85;;;100.78;;
16308;SDS011;8263;48.880;9.276;2023-05-07T09:05:29;109.68;;;102.47;;
16308;SDS011;8263;48.880;9.276;2023-05-07T09:08:00;107.50;;;100.50;;
16308;SDS011;8263;48.880;9.276;2023-05-07T09:10:28;107.22;;;100.13;;
16308;SDS011;8263;48.880;9.276;2023-05-07T09:12:56;105.97;;;99.07;;
16308;SDS011;8263;48.880;9.276;2023-05-07T09:15:22;107.97;;;100.95;;
16308;SDS011;8263;48.880;9.276;2023-05-07T09:17:49;105.22;;;98.32;;
16308;SDS011;8263;48.880;9.276;2023-05-07T09:20:15;104.57;;;97.78;;
16308;SDS011;8263;48.880;9.276;2023-05-07T09:22:42;107.07;;;100.00;;
16308;SDS011;8263;48.880;9.276;2023-05-07T09:25:11;105.43;;;98.55;;
16308;SDS011;8263;48.880;9.276;2023-05-07T09:27:37;105.53;;;98.65;;
16308;SDS011;8263;48.880;9.276;2023-05-07T09:30:04;105.55;;;98.68;;
16308;SDS011;8263;48.880;9.276;2023-05-07T09:32:34;103.22;;;96.53;;
16308;SDS011;8263;48.880;9.276;2023-05-07T09:35:00;100.25;;;93.75;;
16308;SDS011;8263;48.880;9.276;2023-05-07T09:37:27;104.32;;;97.53;;
16308;SDS011;8263;48.880;9.276;2023-05-07T09:39:54;100.30;;;93.80;;
16308;SDS011;8263;48.880;9.276;2023-05-07T09:42:24;99.45;;;92.93;;
16308;SDS011;8263;48.880;9.276;2023-05-07T09:44:51;101.90;;;95.30;;
16308;SDS011;8263;48.880;9.276;2023-05-07T09:47:18;101.57;;;95.05;;
16308;SDS011;8263;48.880;9.276;2023-05-07T09:49:46;98.15;;;91.78;;
16308;SDS011;8263;48.880;9.276;2023-05-07T09:52:14;100.97;;;94.47;;
16308;SDS011;8263;48.880;9.276;2023-05-07T09:54:40;97.43;;;91.13;;
16308;SDS011;8263;48.880;9.276;2023-05-07T09:57:09;99.10;;;92.68;;
16308;SDS011;8263;48.880;9.276;2023-05-07T09:59:38;97.20;;;90.93;;
16308;SDS011;8263;48.880;9.276;2023-05-07T10:02:05;98.00;;;91.70;;
16308;SDS011;8263;48.880;9.276;2023-05-07T10:04:32;97.00;;;90.80;;
16308;SDS011;8263;48.880;9.276;2023-05-07T10:07:00;97.30;;;90.75;;
16308;SDS011;8263;48.880;9.276;2023-05-07T10:09:26;97.35;;;91.10;;
16308;SDS011;8263;48.880;9.276;2023-05-07T10:11:53;95.15;;;89.03;;
16308;SDS011;8263;48.880;9.276;2023-05-07T10:14:20;98.13;;;91.82;;
16308;SDS011;8263;48.880;9.276;2023-05-07T10:16:49;95.38;;;89.28;;
16308;SDS011;8263;48.880;9.276;2023-05-07T10:19:15;96.38;;;90.18;;
16308;SDS011;8263;48.880;9.276;2023-05-07T10:21:44;93.88;;;87.88;;
16308;SDS011;8263;48.880;9.276;2023-05-07T10:24:12;92.93;;;87.03;;
16308;SDS011;8263;48.880;9.276;2023-05-07T10:26:42;93.45;;;87.45;;
16308;SDS011;8263;48.880;9.276;2023-05-07T10:29:11;93.57;;;87.57;;
16308;SDS011;8263;48.880;9.276;2023-05-07T10:31:50;94.30;;;88.28;;
16308;SDS011;8263;48.880;9.276;2023-05-07T10:34:20;91.50;;;85.63;;
16308;SDS011;8263;48.880;9.276;2023-05-07T10:36:46;92.15;;;86.28;;
16308;SDS011;8263;48.880;9.276;2023-05-07T10:39:14;89.78;;;84.00;;
16308;SDS011;8263;48.880;9.276;2023-05-07T10:41:40;93.35;;;87.45;;
16308;SDS011;8263;48.880;9.276;2023-05-07T10:44:07;92.55;;;86.65;;
16308;SDS011;8263;48.880;9.276;2023-05-07T10:46:33;90.78;;;84.97;;
16308;SDS011;8263;48.880;9.276;2023-05-07T10:49:08;89.53;;;83.82;;
16308;SDS011;8263;48.880;9.276;2023-05-07T10:51:36;89.13;;;83.45;;
16308;SDS011;8263;48.880;9.276;2023-05-07T10:54:21;87.97;;;82.38;;
16308;SDS011;8263;48.880;9.276;2023-05-07T10:56:48;88.72;;;83.00;;
16308;SDS011;8263;48.880;9.276;2023-05-07T10:59:32;90.88;;;85.07;;
16308;SDS011;8263;48.880;9.276;2023-05-07T11:02:00;89.30;;;83.60;;
16308;SDS011;8263;48.880;9.276;2023-05-07T11:04:29;87.57;;;81.97;;
16308;SDS011;8263;48.880;9.276;2023-05-07T11:09:57;88.53;;;82.90;;
16308;SDS011;8263;48.880;9.276;2023-05-07T11:15:11;86.75;;;81.25;;
16308;SDS011;8263;48.880;9.276;2023-05-07T11:17:51;87.57;;;82.05;;
16308;SDS011;8263;48.880;9.276;2023-05-07T11:20:20;85.72;;;80.28;;
16308;SDS011;8263;48.880;9.276;2023-05-07T11:22:47;86.18;;;80.68;;
16308;SDS011;8263;48.880;9.276;2023-05-07T11:25:17;84.68;;;79.28;;
16308;SDS011;8263;48.880;9.276;2023-05-07T11:27:43;87.43;;;81.85;;
16308;SDS011;8263;48.880;9.276;2023-05-07T11:30:11;84.40;;;79.05;;
16308;SDS011;8263;48.880;9.276;2023-05-07T11:32:42;84.32;;;78.93;;
16308;SDS011;8263;48.880;9.276;2023-05-07T11:35:09;83.47;;;78.18;;
16308;SDS011;8263;48.880;9.276;2023-05-07T11:37:37;86.70;;;81.20;;
16308;SDS011;8263;48.880;9.276;2023-05-07T11:40:05;84.80;;;79.30;;
16308;SDS011;8263;48.880;9.276;2023-05-07T11:42:32;86.05;;;80.57;;
16308;SDS011;8263;48.880;9.276;2023-05-07T11:44:59;84.50;;;79.15;;
16308;SDS011;8263;48.880;9.276;2023-05-07T11:47:25;83.55;;;78.25;;
16308;SDS011;8263;48.880;9.276;2023-05-07T11:49:53;84.50;;;79.10;;
16308;SDS011;8263;48.880;9.276;2023-05-07T11:52:20;85.80;;;80.35;;
16308;SDS011;8263;48.880;9.276;2023-05-07T11:54:50;87.40;;;81.68;;
16308;SDS011;8263;48.880;9.276;2023-05-07T11:57:16;85.78;;;80.35;;
16308;SDS011;8263;48.880;9.276;2023-05-07T11:59:43;85.07;;;79.68;;
16308;SDS011;8263;48.880;9.276;2023-05-07T12:02:10;85.90;;;80.47;;
16308;SDS011;8263;48.880;9.276;2023-05-07T12:04:37;85.65;;;80.18;;
16308;SDS011;8263;48.880;9.276;2023-05-07T12:07:04;85.82;;;80.35;;
16308;SDS011;8263;48.880;9.276;2023-05-07T12:09:32;83.95;;;78.43;;
16308;SDS011;8263;48.880;9.276;2023-05-07T12:12:03;83.60;;;78.30;;
16308;SDS011;8263;48.880;9.276;2023-05-07T12:14:30;84.82;;;79.43;;
16308;SDS011;8263;48.880;9.276;2023-05-07T12:16:57;83.22;;;77.85;;
16308;SDS011;8263;48.880;9.276;2023-05-07T12:19:27;81.70;;;76.50;;
16308;SDS011;8263;48.880;9.276;2023-05-07T12:21:54;84.97;;;79.57;;
16308;SDS011;8263;48.880;9.276;2023-05-07T12:24:21;86.20;;;80.70;;
16308;SDS011;8263;48.880;9.276;2023-05-07T12:26:47;82.25;;;77.05;;
16308;SDS011;8263;48.880;9.276;2023-05-07T12:29:16;86.43;;;80.93;;
16308;SDS011;8263;48.880;9.276;2023-05-07T12:31:42;84.97;;;79.57;;
16308;SDS011;8263;48.880;9.276;2023-05-07T12:34:10;83.80;;;78.45;;
16308;SDS011;8263;48.880;9.276;2023-05-07T12:36:37;87.13;;;81.63;;
16308;SDS011;8263;48.880;9.276;2023-05-07T12:39:04;82.93;;;77.63;;
16308;SDS011;8263;48.880;9.276;2023-05-07T12:41:31;83.75;;;78.45;;
16308;SDS011;8263;48.880;9.276;2023-05-07T12:44:03;85.85;;;80.32;;
16308;SDS011;8263;48.880;9.276;2023-05-07T12:46:31;86.65;;;81.15;;
16308;SDS011;8263;48.880;9.276;2023-05-07T12:48:58;83.22;;;77.93;;
16308;SDS011;8263;48.880;9.276;2023-05-07T12:51:24;87.03;;;81.30;;
16308;SDS011;8263;48.880;9.276;2023-05-07T12:53:53;84.97;;;79.47;;
16308;SDS011;8263;48.880;9.276;2023-05-07T12:56:21;84.00;;;78.53;;
16308;SDS011;8263;48.880;9.276;2023-05-07T12:58:48;86.75;;;81.18;;
16308;SDS011;8263;48.880;9.276;2023-05-07T13:01:15;85.22;;;79.72;;
16308;SDS011;8263;48.880;9.276;2023-05-07T13:03:47;86.97;;;81.47;;
16308;SDS011;8263;48.880;9.276;2023-05-07T13:06:14;83.90;;;78.60;;
16308;SDS011;8263;48.880;9.276;2023-05-07T13:08:41;86.30;;;80.78;;
16308;SDS011;8263;48.880;9.276;2023-05-07T13:11:08;88.47;;;82.88;;
16308;SDS011;8263;48.880;9.276;2023-05-07T13:13:36;85.72;;;80.22;;
16308;SDS011;8263;48.880;9.276;2023-05-07T13:16:04;85.63;;;80.22;;
16308;SDS011;8263;48.880;9.276;2023-05-07T13:18:31;86.28;;;80.68;;
16308;SDS011;8263;48.880;9.276;2023-05-07T13:20:59;86.70;;;81.20;;
16308;SDS011;8263;48.880;9.276;2023-05-07T13:23:26;85.45;;;80.03;;
16308;SDS011;8263;48.880;9.276;2023-05-07T13:25:53;87.00;;;81.50;;
16308;SDS011;8263;48.880;9.276;2023-05-07T13:28:20;85.43;;;79.97;;
16308;SDS011;8263;48.880;9.276;2023-05-07T13:30:47;88.25;;;82.65;;
16308;SDS011;8263;48.880;9.276;2023-05-07T13:33:14;88.30;;;82.70;;
16308;SDS011;8263;48.880;9.276;2023-05-07T13:35:41;87.75;;;82.20;;
16308;SDS011;8263;48.880;9.276;2023-05-07T13:38:10;89.28;;;83.60;;
16308;SDS011;8263;48.880;9.276;2023-05-07T13:40:36;89.25;;;83.55;;
16308;SDS011;8263;48.880;9.276;2023-05-07T13:43:03;84.68;;;79.32;;
16308;SDS011;8263;48.880;9.276;2023-05-07T13:45:29;87.07;;;81.57;;
16308;SDS011;8263;48.880;9.276;2023-05-07T13:47:56;89.28;;;83.63;;
16308;SDS011;8263;48.880;9.276;2023-05-07T13:50:23;88.38;;;82.78;;
16308;SDS011;8263;48.880;9.276;2023-05-07T13:52:49;88.20;;;82.60;;
16308;SDS011;8263;48.880;9.276;2023-05-07T13:55:18;90.38;;;84.63;;
16308;SDS011;8263;48.880;9.276;2023-05-07T13:57:45;89.68;;;83.97;;
16308;SDS011;8263;48.880;9.276;2023-05-07T14:00:12;90.90;;;85.10;;
16308;SDS011;8263;48.880;9.276;2023-05-07T14:02:39;90.00;;;84.30;;
16308;SDS011;8263;48.880;9.276;2023-05-07T14:05:06;92.20;;;86.38;;
16308;SDS011;8263;48.880;9.276;2023-05-07T14:07:32;90.60;;;84.80;;
16308;SDS011;8263;48.880;9.276;2023-05-07T14:09:59;91.63;;;85.82;;
16308;SDS011;8263;48.880;9.276;2023-05-07T14:12:27;93.10;;;87.20;;
16308;SDS011;8263;48.880;9.276;2023-05-07T14:14:53;90.82;;;84.97;;
16308;SDS011;8263;48.880;9.276;2023-05-07T14:17:20;91.97;;;86.13;;
16308;SDS011;8263;48.880;9.276;2023-05-07T14:19:48;92.57;;;86.68;;
16308;SDS011;8263;48.880;9.276;2023-05-07T14:22:14;95.70;;;89.60;;
16308;SDS011;8263;48.880;9.276;2023-05-07T14:24:41;93.22;;;87.32;;